Terminal Aerodrome Forecast
Issued by NWS Hastings, NE

Home | Current Version | Previous Version | Text Only | Print | Product List | Glossary On
Versions: 1 2 3 4 5 6 7 8 9 10 11 12 13 14 15 16 17 18 19 20 21 22 23 24 25 26 27 28 29 30 31 32 33 34 35 36 37 38 39 40 41 42 43 44
000
FTUS43 KGID 132207 AAA
TAFGRI
TAF AMD
KGRI 132207Z 1322/1418 16013G19KT P6SM OVC030
     FM140000 15012KT P6SM BKN040
     FM140700 21011KT P6SM SCT015 BKN035
     FM141000 26012KT P6SM SCT040 SCT200
     FM141500 29012KT P6SM SCT200=

USA.gov is the U.S. government's official web portal to all federal, state and local government web resources and services.